Hovedside
METAR-TAF:

METAR-TAF

Lufthavner :

Ringkøbing-Skjern, Danmark

Stauning lufthavn

breddegrad: 56-00N, lengdegrad: 008-21E, høyde over havet: 5 m

Gjeldene værobservasjon

Denne rapporten ble laget for 4 timer og 53 minutter siden, klokken 13:50 UTC
Vind 8 kt fra Sørøst
Temperatur 16°C
Luftfuktighet 88%
Trykk 1021 hPa
Sikt 10 km eller mer
Få skyer i en høyde av 2500 ft
Brutte skyer i en høyde av 10000 ft

METAR: EKVJ 221350Z 14008KT 9999 FEW025 BKN100 16/14 Q1021

Tid: 20:43 (18:43 UTC)

Varsel

Denne rapporten ble laget for 9 timer og 48 minutter siden, klokken 08:55 UTC
Varsel gyldig fra 22. klokken 09 UTC til 22. klokken 15 UTC
Vind 5 kt fra Øst
Sikt 10 km eller mer
Brutte skyer i en høyde av 4000 ft

TAF: EKVJ 220855Z 2209/2215 10005KT 9999 BKN040

Værobservasjoner og værvarsel for over 4000 flyplasser (METAR- og TAF-rapporter).

Tilgjengelige stasjoner er representert av de røde og gule prikkene på kartet.

Hold musepekeren over prikken for å se navnet på stasjonen.

Klikk så for å se værobservasjoner og -varsler.

For å forandre kartet kan du klikke på den grønne knappen med svart kryss for å zoome inn, på den grønne knappen med strek for å zoome ut, eller på de grønne pilene for å se tilstøtende kart.


METAR-TAF: